createdAt,value
2023-04-30T00:03:00.670Z,71.32
2023-04-30T00:08:02.396Z,71.34
2023-04-30T00:13:05.375Z,71.69
2023-04-30T00:18:07.138Z,71.95
2023-04-30T00:23:08.856Z,71.68
2023-04-30T00:28:11.781Z,71.28
2023-04-30T00:33:13.438Z,71.42
2023-04-30T00:38:15.294Z,71.29
2023-04-30T00:43:18.226Z,71.96
2023-04-30T00:48:19.973Z,72.37
2023-04-30T00:53:21.661Z,71.81
2023-04-30T00:58:24.728Z,71.35
2023-04-30T01:03:26.623Z,71.27
2023-04-30T01:08:28.422Z,70.81
2023-04-30T01:13:35.149Z,70.13
2023-04-30T01:18:42.498Z,70.98
2023-04-30T01:23:55.268Z,71.46
2023-04-30T01:28:59.628Z,72.32
2023-04-30T01:34:01.212Z,72.11
2023-04-30T01:39:10.553Z,73.14
2023-04-30T01:44:24.139Z,74.35
2023-04-30T01:49:30.587Z,75.66
2023-04-30T01:54:37.262Z,76.22
2023-04-30T01:59:41.078Z,76.68
2023-04-30T02:04:42.738Z,77.60
2023-04-30T02:09:44.293Z,77.06
2023-04-30T02:14:47.311Z,76.96
2023-04-30T02:19:48.951Z,76.53
2023-04-30T02:24:50.584Z,75.74
2023-04-30T02:29:54.079Z,76.38
2023-04-30T02:34:55.880Z,76.61
2023-04-30T02:39:57.627Z,76.41
2023-04-30T02:45:01.817Z,76.46
2023-04-30T02:50:03.787Z,76.63
2023-04-30T02:55:06.534Z,76.92
2023-04-30T03:00:11.030Z,78.22
2023-04-30T03:05:13.199Z,77.32
2023-04-30T03:10:14.911Z,77.68
2023-04-30T03:15:17.994Z,77.12
2023-04-30T03:20:20.080Z,77.28
2023-04-30T03:25:21.869Z,77.95
2023-04-30T03:30:24.968Z,77.53
2023-04-30T03:35:26.660Z,77.78
2023-04-30T03:40:28.381Z,77.66
2023-04-30T03:45:31.530Z,77.08
2023-04-30T03:50:33.260Z,77.28
2023-04-30T03:55:35.283Z,77.10
2023-04-30T04:00:41.041Z,77.14
2023-04-30T04:05:42.857Z,77.77
2023-04-30T04:10:44.571Z,78.23
2023-04-30T04:15:47.639Z,78.38
2023-04-30T04:20:49.225Z,77.54
2023-04-30T04:25:51.661Z,77.27
2023-04-30T04:30:54.666Z,78.22
2023-04-30T04:35:56.493Z,78.17
2023-04-30T04:40:58.116Z,78.50
2023-04-30T04:46:01.424Z,77.55
2023-04-30T04:51:04.478Z,77.57
2023-04-30T04:56:07.090Z,76.86
2023-04-30T05:01:10.181Z,75.79
2023-04-30T05:06:11.875Z,74.33
2023-04-30T05:11:15.647Z,73.11
2023-04-30T05:16:19.117Z,71.34
2023-04-30T05:21:20.922Z,63.80
2023-04-30T05:26:22.551Z,66.23
2023-04-30T05:31:25.520Z,58.96
2023-04-30T05:36:27.203Z,55.27
2023-04-30T05:41:28.862Z,52.81
2023-04-30T05:46:31.842Z,51.60
2023-04-30T05:51:33.464Z,52.58
2023-04-30T05:56:35.201Z,51.84
2023-04-30T06:01:38.186Z,52.25
2023-04-30T06:06:39.988Z,51.11
2023-04-30T06:11:42.672Z,49.95
2023-04-30T06:16:46.023Z,48.96
2023-04-30T06:21:47.747Z,49.48
2023-04-30T06:26:49.486Z,49.63
2023-04-30T06:31:52.783Z,49.04
2023-04-30T06:36:54.495Z,47.96
2023-04-30T06:41:56.121Z,47.87
2023-04-30T06:46:59.159Z,46.93
2023-04-30T06:52:00.797Z,45.03
2023-04-30T06:57:02.565Z,44.35
2023-04-30T07:02:05.953Z,44.84
2023-04-30T07:07:09.226Z,45.71
2023-04-30T07:12:11.688Z,44.79
2023-04-30T07:17:14.704Z,43.32
2023-04-30T07:22:16.441Z,42.39
2023-04-30T07:27:18.156Z,41.46
2023-04-30T07:32:21.391Z,41.99
2023-04-30T07:37:23.466Z,42.01
2023-04-30T07:42:25.235Z,42.81
2023-04-30T07:47:28.521Z,41.12
2023-04-30T07:52:30.404Z,42.16
2023-04-30T07:57:32.270Z,42.99
2023-04-30T08:02:35.488Z,41.38
2023-04-30T08:07:37.394Z,41.00
2023-04-30T08:12:39.024Z,41.05
2023-04-30T08:17:42.291Z,40.75
2023-04-30T08:22:44.248Z,39.46
2023-04-30T08:27:45.877Z,40.45
2023-04-30T08:32:49.293Z,40.88
2023-04-30T08:37:51.420Z,41.39
2023-04-30T08:43:00.387Z,41.76
2023-04-30T08:48:04.348Z,41.97
2023-04-30T08:53:08.211Z,42.70
2023-04-30T08:58:09.948Z,41.78
2023-04-30T09:03:13.153Z,41.55
2023-04-30T09:08:17.742Z,41.50
2023-04-30T09:13:19.552Z,42.86
2023-04-30T09:18:22.925Z,42.81
2023-04-30T09:23:25.648Z,40.80
2023-04-30T09:28:27.885Z,40.53
2023-04-30T09:33:45.829Z,40.34
2023-04-30T09:38:47.848Z,40.99
2023-04-30T09:43:49.836Z,42.25
2023-04-30T09:49:00.562Z,38.98
2023-04-30T09:54:03.553Z,40.06
2023-04-30T09:59:07.030Z,40.21
2023-04-30T10:04:10.425Z,36.76
2023-04-30T10:09:14.073Z,35.34
2023-04-30T10:14:18.197Z,34.52
2023-04-30T10:19:23.778Z,35.35
2023-04-30T10:24:25.438Z,34.89
2023-04-30T10:29:27.348Z,35.34
2023-04-30T10:34:38.374Z,34.95
2023-04-30T10:39:40.534Z,33.58
2023-04-30T10:44:43.168Z,35.00
2023-04-30T10:49:47.178Z,35.39
2023-04-30T10:54:50.205Z,36.92
2023-04-30T10:59:54.515Z,38.12
2023-04-30T11:05:11.737Z,42.26
2023-04-30T11:10:14.083Z,42.57
2023-04-30T11:15:18.052Z,44.06
2023-04-30T11:20:23.562Z,44.28
2023-04-30T11:25:25.326Z,40.77
2023-04-30T11:30:29.018Z,41.53
2023-04-30T11:35:34.864Z,42.51
2023-04-30T11:40:36.688Z,41.93
2023-04-30T11:45:39.341Z,42.34
2023-04-30T11:50:43.121Z,43.28
2023-04-30T11:55:44.797Z,41.61
2023-04-30T12:00:47.025Z,42.59
2023-04-30T12:05:50.830Z,42.39
2023-04-30T12:10:52.504Z,42.69
2023-04-30T12:15:58.304Z,40.67
2023-04-30T12:21:01.482Z,39.42
2023-04-30T12:26:03.244Z,38.58
2023-04-30T12:31:05.100Z,38.98
2023-04-30T12:36:11.396Z,37.51
2023-04-30T12:41:13.097Z,40.55
2023-04-30T12:46:26.325Z,37.85
2023-04-30T12:51:29.788Z,38.19
2023-04-30T12:56:31.541Z,37.04
2023-04-30T13:01:33.422Z,36.08
2023-04-30T13:06:36.577Z,37.04
2023-04-30T13:11:38.510Z,37.90
2023-04-30T13:16:40.438Z,39.11
2023-04-30T13:21:43.439Z,37.42
2023-04-30T13:26:45.108Z,36.14
2023-04-30T13:31:46.996Z,37.67
2023-04-30T13:36:49.989Z,36.28
2023-04-30T13:41:51.829Z,37.33
2023-04-30T13:46:53.596Z,38.57
2023-04-30T13:51:56.545Z,39.52
2023-04-30T13:56:58.382Z,37.46
2023-04-30T14:02:00.200Z,37.06
2023-04-30T14:07:03.485Z,39.02
2023-04-30T14:12:05.405Z,38.65
2023-04-30T14:17:07.195Z,39.39
2023-04-30T14:22:10.223Z,40.28
2023-04-30T14:27:11.866Z,39.04
2023-04-30T14:32:16.125Z,39.37
2023-04-30T14:37:19.225Z,39.77
2023-04-30T14:42:20.993Z,40.43
2023-04-30T14:47:22.796Z,40.65
2023-04-30T14:52:25.921Z,39.46
2023-04-30T14:57:27.538Z,36.84
2023-04-30T15:02:29.412Z,37.25
2023-04-30T15:07:32.496Z,37.16
2023-04-30T15:12:34.207Z,38.47
2023-04-30T15:17:35.921Z,40.57
2023-04-30T15:22:39.029Z,37.89
2023-04-30T15:27:40.652Z,39.72
2023-04-30T15:32:42.446Z,37.94
2023-04-30T15:37:45.518Z,37.89
2023-04-30T15:42:47.246Z,38.74
2023-04-30T15:47:49.003Z,38.29
2023-04-30T15:52:52.084Z,38.79
2023-04-30T15:57:53.750Z,39.02
2023-04-30T16:02:56.562Z,38.97
2023-04-30T16:07:59.752Z,39.43
2023-04-30T16:13:01.397Z,38.83
2023-04-30T16:18:03.252Z,38.88
2023-04-30T16:23:06.499Z,39.94
2023-04-30T16:28:08.253Z,41.26
2023-04-30T16:33:09.946Z,42.03
2023-04-30T16:38:13.057Z,41.19
2023-04-30T16:43:14.765Z,41.98
2023-04-30T16:48:16.469Z,42.80
2023-04-30T16:53:19.536Z,42.16
2023-04-30T16:58:21.280Z,43.98
2023-04-30T17:03:23.611Z,44.14
2023-04-30T17:08:26.790Z,43.07
2023-04-30T17:13:28.519Z,43.84
2023-04-30T17:18:30.263Z,42.77
2023-04-30T17:23:33.741Z,43.33
2023-04-30T17:28:35.478Z,43.15
2023-04-30T17:33:37.268Z,43.64
2023-04-30T17:38:40.289Z,43.93
2023-04-30T17:43:42.068Z,43.98
2023-04-30T17:48:43.716Z,44.64
2023-04-30T17:53:46.917Z,44.64
2023-04-30T17:58:48.536Z,45.05
2023-04-30T18:03:50.525Z,46.66
2023-04-30T18:08:53.732Z,48.04
2023-04-30T18:13:55.482Z,49.14
2023-04-30T18:18:57.115Z,49.32
2023-04-30T18:24:00.121Z,49.95
2023-04-30T18:29:02.189Z,50.23
2023-04-30T18:34:03.968Z,50.97
2023-04-30T18:39:07.028Z,51.06
2023-04-30T18:44:10.282Z,51.89
2023-04-30T18:49:12.031Z,52.54
2023-04-30T18:54:15.068Z,53.55
2023-04-30T18:59:16.786Z,53.68
2023-04-30T19:04:18.524Z,54.22
2023-04-30T19:09:21.607Z,54.32
2023-04-30T19:14:23.293Z,55.31
2023-04-30T19:19:25.025Z,55.92
2023-04-30T19:24:28.283Z,56.16
2023-04-30T19:29:29.977Z,56.84
2023-04-30T19:34:31.774Z,57.12
2023-04-30T19:39:35.078Z,56.69
2023-04-30T19:44:36.886Z,56.88
2023-04-30T19:49:38.590Z,57.84
2023-04-30T19:54:41.763Z,58.51
2023-04-30T19:59:43.482Z,60.27
2023-04-30T20:04:45.311Z,61.02
2023-04-30T20:09:48.301Z,61.29
2023-04-30T20:14:49.988Z,61.53
2023-04-30T20:19:51.696Z,60.27
2023-04-30T20:24:54.885Z,60.79
2023-04-30T20:29:56.713Z,60.43
2023-04-30T20:34:58.812Z,60.49
2023-04-30T20:40:02.277Z,60.38
2023-04-30T20:45:05.770Z,60.70
2023-04-30T20:50:08.188Z,61.63
2023-04-30T20:55:11.495Z,61.75
2023-04-30T21:00:13.713Z,61.69
2023-04-30T21:05:15.435Z,61.87
2023-04-30T21:10:18.650Z,61.99
2023-04-30T21:15:20.245Z,62.09
2023-04-30T21:20:21.913Z,61.61
2023-04-30T21:25:24.940Z,61.38
2023-04-30T21:30:26.709Z,61.42
2023-04-30T21:35:29.945Z,61.41
2023-04-30T21:40:33.046Z,61.08
2023-04-30T21:45:34.768Z,60.56
2023-04-30T21:50:36.533Z,60.38
2023-04-30T21:55:39.547Z,60.56
2023-04-30T22:00:41.162Z,59.90
2023-04-30T22:05:42.792Z,60.09
2023-04-30T22:10:45.778Z,60.43
2023-04-30T22:15:48.516Z,60.40
2023-04-30T22:20:51.171Z,60.42
2023-04-30T22:25:54.232Z,60.36
2023-04-30T22:30:57.849Z,60.84
2023-04-30T22:35:59.504Z,61.11
2023-04-30T22:41:02.799Z,61.19
2023-04-30T22:46:04.558Z,61.43
2023-04-30T22:51:06.510Z,61.10
2023-04-30T22:56:09.806Z,61.32
2023-04-30T23:01:11.551Z,62.67
2023-04-30T23:06:13.230Z,61.39
2023-04-30T23:11:16.263Z,61.14
2023-04-30T23:16:18.082Z,61.64
2023-04-30T23:21:19.754Z,61.96
2023-04-30T23:26:22.662Z,62.22
2023-04-30T23:31:24.412Z,60.59
2023-04-30T23:36:26.111Z,60.47
2023-04-30T23:41:29.123Z,60.42
2023-04-30T23:46:30.891Z,59.84
2023-04-30T23:51:32.504Z,59.39
2023-04-30T23:56:35.598Z,59.83
